sensor_id;sensor_type;location;lat;lon;timestamp;temperature;humidity
752;DHT22;360;48.764;9.164;2022-12-24T00:02:20;10.00;99.90
752;DHT22;360;48.764;9.164;2022-12-24T00:04:46;10.00;99.90
752;DHT22;360;48.764;9.164;2022-12-24T00:07:13;9.90;99.90
752;DHT22;360;48.764;9.164;2022-12-24T00:09:40;9.90;99.90
752;DHT22;360;48.764;9.164;2022-12-24T00:12:08;9.90;99.90
752;DHT22;360;48.764;9.164;2022-12-24T00:14:35;9.90;99.90
752;DHT22;360;48.764;9.164;2022-12-24T00:17:02;9.80;99.90
752;DHT22;360;48.764;9.164;2022-12-24T00:19:29;9.70;99.90
752;DHT22;360;48.764;9.164;2022-12-24T00:21:55;9.70;99.90
752;DHT22;360;48.764;9.164;2022-12-24T00:24:22;9.70;99.90
752;DHT22;360;48.764;9.164;2022-12-24T00:26:49;9.70;99.90
752;DHT22;360;48.764;9.164;2022-12-24T00:29:18;9.80;99.90
752;DHT22;360;48.764;9.164;2022-12-24T00:31:45;9.90;99.90
752;DHT22;360;48.764;9.164;2022-12-24T00:34:12;10.00;99.90
752;DHT22;360;48.764;9.164;2022-12-24T00:36:38;10.00;99.90
752;DHT22;360;48.764;9.164;2022-12-24T00:39:05;10.10;99.90
752;DHT22;360;48.764;9.164;2022-12-24T00:41:32;10.10;99.90
752;DHT22;360;48.764;9.164;2022-12-24T00:44:01;10.20;99.90
752;DHT22;360;48.764;9.164;2022-12-24T00:46:32;10.10;99.90
752;DHT22;360;48.764;9.164;2022-12-24T00:49:00;10.10;99.90
752;DHT22;360;48.764;9.164;2022-12-24T00:51:27;10.10;99.90
752;DHT22;360;48.764;9.164;2022-12-24T00:53:54;10.10;99.90
752;DHT22;360;48.764;9.164;2022-12-24T00:56:21;10.10;99.90
752;DHT22;360;48.764;9.164;2022-12-24T00:58:48;10.10;99.90
752;DHT22;360;48.764;9.164;2022-12-24T01:01:16;10.00;99.90
752;DHT22;360;48.764;9.164;2022-12-24T01:03:44;9.90;99.90
752;DHT22;360;48.764;9.164;2022-12-24T01:06:13;9.90;99.90
752;DHT22;360;48.764;9.164;2022-12-24T01:08:39;9.90;99.90
752;DHT22;360;48.764;9.164;2022-12-24T01:11:08;9.90;99.90
752;DHT22;360;48.764;9.164;2022-12-24T01:13:36;10.10;99.90
752;DHT22;360;48.764;9.164;2022-12-24T01:16:10;10.00;99.90
752;DHT22;360;48.764;9.164;2022-12-24T01:18:38;9.90;99.90
752;DHT22;360;48.764;9.164;2022-12-24T01:21:06;10.00;99.90
752;DHT22;360;48.764;9.164;2022-12-24T01:23:33;9.90;99.90
752;DHT22;360;48.764;9.164;2022-12-24T01:26:00;10.00;99.90
752;DHT22;360;48.764;9.164;2022-12-24T01:28:27;10.00;99.90
752;DHT22;360;48.764;9.164;2022-12-24T01:30:54;10.00;99.90
752;DHT22;360;48.764;9.164;2022-12-24T01:33:21;10.00;99.90
752;DHT22;360;48.764;9.164;2022-12-24T01:35:48;9.90;99.90
752;DHT22;360;48.764;9.164;2022-12-24T01:38:16;10.20;99.90
752;DHT22;360;48.764;9.164;2022-12-24T01:40:43;10.20;99.90
752;DHT22;360;48.764;9.164;2022-12-24T01:43:30;10.20;99.90
752;DHT22;360;48.764;9.164;2022-12-24T01:45:58;10.30;99.90
752;DHT22;360;48.764;9.164;2022-12-24T01:48:33;10.40;99.90
752;DHT22;360;48.764;9.164;2022-12-24T01:51:01;10.50;99.90
752;DHT22;360;48.764;9.164;2022-12-24T01:53:33;10.50;99.90
752;DHT22;360;48.764;9.164;2022-12-24T01:56:01;10.70;99.90
752;DHT22;360;48.764;9.164;2022-12-24T01:58:29;10.80;99.90
752;DHT22;360;48.764;9.164;2022-12-24T02:00:56;10.80;99.90
752;DHT22;360;48.764;9.164;2022-12-24T02:03:23;10.80;99.90
752;DHT22;360;48.764;9.164;2022-12-24T02:05:52;10.90;99.90
752;DHT22;360;48.764;9.164;2022-12-24T02:08:20;10.80;99.90
752;DHT22;360;48.764;9.164;2022-12-24T02:10:49;10.90;99.90
752;DHT22;360;48.764;9.164;2022-12-24T02:13:18;10.80;99.90
752;DHT22;360;48.764;9.164;2022-12-24T02:15:55;10.70;99.90
752;DHT22;360;48.764;9.164;2022-12-24T02:18:31;10.70;99.90
752;DHT22;360;48.764;9.164;2022-12-24T02:24:48;10.50;99.90
752;DHT22;360;48.764;9.164;2022-12-24T02:27:41;10.50;99.90
752;DHT22;360;48.764;9.164;2022-12-24T02:30:14;10.40;99.90
752;DHT22;360;48.764;9.164;2022-12-24T02:33:12;10.40;99.90
752;DHT22;360;48.764;9.164;2022-12-24T02:35:47;10.40;99.90
752;DHT22;360;48.764;9.164;2022-12-24T02:38:21;10.40;99.90
752;DHT22;360;48.764;9.164;2022-12-24T02:40:51;10.40;99.90
752;DHT22;360;48.764;9.164;2022-12-24T02:43:21;10.40;99.90
752;DHT22;360;48.764;9.164;2022-12-24T02:45:56;10.30;99.90
752;DHT22;360;48.764;9.164;2022-12-24T02:48:24;10.10;99.90
752;DHT22;360;48.764;9.164;2022-12-24T02:51:01;10.00;99.90
752;DHT22;360;48.764;9.164;2022-12-24T02:53:30;9.80;99.90
752;DHT22;360;48.764;9.164;2022-12-24T02:56:25;9.70;99.90
752;DHT22;360;48.764;9.164;2022-12-24T02:59:10;9.50;99.90
752;DHT22;360;48.764;9.164;2022-12-24T03:01:45;9.50;99.90
752;DHT22;360;48.764;9.164;2022-12-24T03:04:21;9.70;99.90
752;DHT22;360;48.764;9.164;2022-12-24T03:07:06;9.70;99.90
752;DHT22;360;48.764;9.164;2022-12-24T03:09:42;9.90;99.90
752;DHT22;360;48.764;9.164;2022-12-24T03:12:15;10.00;99.90
752;DHT22;360;48.764;9.164;2022-12-24T03:14:44;10.00;99.90
752;DHT22;360;48.764;9.164;2022-12-24T03:17:13;9.90;99.90
752;DHT22;360;48.764;9.164;2022-12-24T03:22:09;9.70;99.90
752;DHT22;360;48.764;9.164;2022-12-24T03:24:37;9.60;99.90
752;DHT22;360;48.764;9.164;2022-12-24T03:27:05;9.70;99.90
752;DHT22;360;48.764;9.164;2022-12-24T03:29:33;9.70;99.90
752;DHT22;360;48.764;9.164;2022-12-24T03:32:02;9.60;99.90
752;DHT22;360;48.764;9.164;2022-12-24T03:34:30;9.70;99.90
752;DHT22;360;48.764;9.164;2022-12-24T03:36:58;9.60;99.90
752;DHT22;360;48.764;9.164;2022-12-24T03:39:25;9.50;99.90
752;DHT22;360;48.764;9.164;2022-12-24T03:41:51;9.50;99.90
752;DHT22;360;48.764;9.164;2022-12-24T03:44:18;9.60;99.90
752;DHT22;360;48.764;9.164;2022-12-24T03:46:45;9.60;99.90
752;DHT22;360;48.764;9.164;2022-12-24T03:49:12;9.60;99.90
752;DHT22;360;48.764;9.164;2022-12-24T03:51:40;9.50;99.90
752;DHT22;360;48.764;9.164;2022-12-24T03:54:07;9.50;99.90
752;DHT22;360;48.764;9.164;2022-12-24T03:56:33;9.60;99.90
752;DHT22;360;48.764;9.164;2022-12-24T03:59:00;9.50;99.90
752;DHT22;360;48.764;9.164;2022-12-24T04:01:27;9.50;99.90
752;DHT22;360;48.764;9.164;2022-12-24T04:03:54;9.50;99.90
752;DHT22;360;48.764;9.164;2022-12-24T04:06:21;9.40;99.90
752;DHT22;360;48.764;9.164;2022-12-24T04:08:49;9.40;99.90
752;DHT22;360;48.764;9.164;2022-12-24T04:11:17;9.40;99.90
752;DHT22;360;48.764;9.164;2022-12-24T04:13:44;9.40;99.90
752;DHT22;360;48.764;9.164;2022-12-24T04:16:13;9.60;99.90
752;DHT22;360;48.764;9.164;2022-12-24T04:18:40;9.50;99.90
752;DHT22;360;48.764;9.164;2022-12-24T04:21:08;9.40;99.90
752;DHT22;360;48.764;9.164;2022-12-24T04:23:36;9.50;99.90
752;DHT22;360;48.764;9.164;2022-12-24T04:26:06;9.40;99.90
752;DHT22;360;48.764;9.164;2022-12-24T04:28:34;9.40;99.90
752;DHT22;360;48.764;9.164;2022-12-24T04:31:04;9.40;99.90
752;DHT22;360;48.764;9.164;2022-12-24T04:33:31;9.50;99.90
752;DHT22;360;48.764;9.164;2022-12-24T04:35:59;9.60;99.90
752;DHT22;360;48.764;9.164;2022-12-24T04:38:27;9.60;99.90
752;DHT22;360;48.764;9.164;2022-12-24T04:40:57;9.50;99.90
752;DHT22;360;48.764;9.164;2022-12-24T04:43:26;9.40;99.90
752;DHT22;360;48.764;9.164;2022-12-24T04:45:53;9.40;99.90
752;DHT22;360;48.764;9.164;2022-12-24T04:48:20;9.40;99.90
752;DHT22;360;48.764;9.164;2022-12-24T04:50:47;9.40;99.90
752;DHT22;360;48.764;9.164;2022-12-24T04:53:14;9.40;99.90
752;DHT22;360;48.764;9.164;2022-12-24T04:55:43;9.40;99.90
752;DHT22;360;48.764;9.164;2022-12-24T04:58:10;9.40;99.90
752;DHT22;360;48.764;9.164;2022-12-24T05:00:38;9.40;99.90
752;DHT22;360;48.764;9.164;2022-12-24T05:03:05;9.30;99.90
752;DHT22;360;48.764;9.164;2022-12-24T05:05:32;9.20;99.90
752;DHT22;360;48.764;9.164;2022-12-24T05:07:58;9.20;99.90
752;DHT22;360;48.764;9.164;2022-12-24T05:10:25;9.30;99.90
752;DHT22;360;48.764;9.164;2022-12-24T05:12:52;9.20;99.90
752;DHT22;360;48.764;9.164;2022-12-24T05:15:19;9.20;99.90
752;DHT22;360;48.764;9.164;2022-12-24T05:17:48;9.20;99.90
752;DHT22;360;48.764;9.164;2022-12-24T05:20:15;9.10;99.90
752;DHT22;360;48.764;9.164;2022-12-24T05:22:42;9.00;99.90
752;DHT22;360;48.764;9.164;2022-12-24T05:25:31;9.00;99.90
752;DHT22;360;48.764;9.164;2022-12-24T05:28:16;8.90;99.90
752;DHT22;360;48.764;9.164;2022-12-24T05:30:43;8.90;99.90
752;DHT22;360;48.764;9.164;2022-12-24T05:33:11;9.00;99.90
752;DHT22;360;48.764;9.164;2022-12-24T05:35:38;9.10;99.90
752;DHT22;360;48.764;9.164;2022-12-24T05:38:05;9.00;99.90
752;DHT22;360;48.764;9.164;2022-12-24T05:40:32;9.20;99.90
752;DHT22;360;48.764;9.164;2022-12-24T05:42:59;9.20;99.90
752;DHT22;360;48.764;9.164;2022-12-24T05:45:25;9.30;99.90
752;DHT22;360;48.764;9.164;2022-12-24T05:47:52;9.30;99.90
752;DHT22;360;48.764;9.164;2022-12-24T05:50:20;9.30;99.90
752;DHT22;360;48.764;9.164;2022-12-24T05:52:47;9.20;99.90
752;DHT22;360;48.764;9.164;2022-12-24T05:55:14;9.30;99.90
752;DHT22;360;48.764;9.164;2022-12-24T05:57:41;9.30;99.90
752;DHT22;360;48.764;9.164;2022-12-24T06:00:08;9.20;99.90
752;DHT22;360;48.764;9.164;2022-12-24T06:02:35;9.20;99.90
752;DHT22;360;48.764;9.164;2022-12-24T06:05:03;9.20;99.90
752;DHT22;360;48.764;9.164;2022-12-24T06:07:31;9.20;99.90
752;DHT22;360;48.764;9.164;2022-12-24T06:09:58;9.20;99.90
752;DHT22;360;48.764;9.164;2022-12-24T06:12:25;9.20;99.90
752;DHT22;360;48.764;9.164;2022-12-24T06:14:51;9.10;99.90
752;DHT22;360;48.764;9.164;2022-12-24T06:17:18;9.10;99.90
752;DHT22;360;48.764;9.164;2022-12-24T06:19:45;9.10;99.90
752;DHT22;360;48.764;9.164;2022-12-24T06:22:12;9.20;99.90
752;DHT22;360;48.764;9.164;2022-12-24T06:24:40;9.30;99.90
752;DHT22;360;48.764;9.164;2022-12-24T06:27:07;9.30;99.90
752;DHT22;360;48.764;9.164;2022-12-24T06:29:34;9.20;99.90
752;DHT22;360;48.764;9.164;2022-12-24T06:32:01;9.20;99.90
752;DHT22;360;48.764;9.164;2022-12-24T06:34:27;9.10;99.90
752;DHT22;360;48.764;9.164;2022-12-24T06:36:54;9.10;99.90
752;DHT22;360;48.764;9.164;2022-12-24T06:39:21;9.00;99.90
752;DHT22;360;48.764;9.164;2022-12-24T06:41:49;9.00;99.90
752;DHT22;360;48.764;9.164;2022-12-24T06:44:16;8.90;99.90
752;DHT22;360;48.764;9.164;2022-12-24T06:46:43;8.80;99.90
752;DHT22;360;48.764;9.164;2022-12-24T06:49:09;8.70;99.90
752;DHT22;360;48.764;9.164;2022-12-24T06:51:36;8.60;99.90
752;DHT22;360;48.764;9.164;2022-12-24T06:54:03;8.60;99.90
752;DHT22;360;48.764;9.164;2022-12-24T06:56:30;8.60;99.90
752;DHT22;360;48.764;9.164;2022-12-24T06:58:58;8.60;99.90
752;DHT22;360;48.764;9.164;2022-12-24T07:01:25;8.60;99.90
752;DHT22;360;48.764;9.164;2022-12-24T07:03:52;8.60;99.90
752;DHT22;360;48.764;9.164;2022-12-24T07:06:22;8.60;99.90
752;DHT22;360;48.764;9.164;2022-12-24T07:08:50;8.70;99.90
752;DHT22;360;48.764;9.164;2022-12-24T07:11:17;8.60;99.90
752;DHT22;360;48.764;9.164;2022-12-24T07:13:44;8.60;99.90
752;DHT22;360;48.764;9.164;2022-12-24T07:16:12;8.60;99.90
752;DHT22;360;48.764;9.164;2022-12-24T07:18:39;8.50;99.90
752;DHT22;360;48.764;9.164;2022-12-24T07:21:06;8.50;99.90
752;DHT22;360;48.764;9.164;2022-12-24T07:23:33;8.60;99.90
752;DHT22;360;48.764;9.164;2022-12-24T07:26:00;8.60;99.90
752;DHT22;360;48.764;9.164;2022-12-24T07:28:27;8.60;99.90
752;DHT22;360;48.764;9.164;2022-12-24T07:30:54;8.50;99.90
752;DHT22;360;48.764;9.164;2022-12-24T07:33:23;8.70;99.90
752;DHT22;360;48.764;9.164;2022-12-24T07:35:58;8.60;99.90
752;DHT22;360;48.764;9.164;2022-12-24T07:38:25;8.60;99.90
752;DHT22;360;48.764;9.164;2022-12-24T07:40:52;8.70;99.90
752;DHT22;360;48.764;9.164;2022-12-24T07:43:19;8.80;99.90
752;DHT22;360;48.764;9.164;2022-12-24T07:45:46;8.70;99.90
752;DHT22;360;48.764;9.164;2022-12-24T07:48:12;8.80;99.90
752;DHT22;360;48.764;9.164;2022-12-24T07:50:41;8.70;99.90
752;DHT22;360;48.764;9.164;2022-12-24T07:53:07;8.70;99.90
752;DHT22;360;48.764;9.164;2022-12-24T07:55:34;8.60;99.90
752;DHT22;360;48.764;9.164;2022-12-24T07:58:01;8.50;99.90
752;DHT22;360;48.764;9.164;2022-12-24T08:00:28;8.50;99.90
752;DHT22;360;48.764;9.164;2022-12-24T08:02:55;8.40;99.90
752;DHT22;360;48.764;9.164;2022-12-24T08:05:24;8.30;99.90
752;DHT22;360;48.764;9.164;2022-12-24T08:07:53;8.30;99.90
752;DHT22;360;48.764;9.164;2022-12-24T08:10:20;8.40;99.90
752;DHT22;360;48.764;9.164;2022-12-24T08:12:47;8.50;99.90
752;DHT22;360;48.764;9.164;2022-12-24T08:15:14;8.50;99.90
752;DHT22;360;48.764;9.164;2022-12-24T08:17:41;8.60;99.90
752;DHT22;360;48.764;9.164;2022-12-24T08:20:09;8.50;99.90
752;DHT22;360;48.764;9.164;2022-12-24T08:22:36;8.40;99.90
752;DHT22;360;48.764;9.164;2022-12-24T08:25:05;8.50;99.90
752;DHT22;360;48.764;9.164;2022-12-24T08:27:32;8.70;99.90
752;DHT22;360;48.764;9.164;2022-12-24T08:29:59;8.80;99.90
752;DHT22;360;48.764;9.164;2022-12-24T08:32:26;8.80;99.90
752;DHT22;360;48.764;9.164;2022-12-24T08:34:53;8.70;99.90
752;DHT22;360;48.764;9.164;2022-12-24T08:37:20;8.70;99.90
752;DHT22;360;48.764;9.164;2022-12-24T08:39:46;8.60;99.90
752;DHT22;360;48.764;9.164;2022-12-24T08:42:15;8.60;99.90
752;DHT22;360;48.764;9.164;2022-12-24T08:44:41;8.60;99.90
752;DHT22;360;48.764;9.164;2022-12-24T08:47:08;8.80;99.90
752;DHT22;360;48.764;9.164;2022-12-24T08:49:35;8.80;99.90
752;DHT22;360;48.764;9.164;2022-12-24T08:52:02;8.90;99.90
752;DHT22;360;48.764;9.164;2022-12-24T08:54:29;8.80;99.90
752;DHT22;360;48.764;9.164;2022-12-24T08:56:55;8.80;99.90
752;DHT22;360;48.764;9.164;2022-12-24T08:59:24;8.90;99.90
752;DHT22;360;48.764;9.164;2022-12-24T09:01:51;8.90;99.90
752;DHT22;360;48.764;9.164;2022-12-24T09:04:17;8.90;99.90
752;DHT22;360;48.764;9.164;2022-12-24T09:06:45;9.00;99.90
752;DHT22;360;48.764;9.164;2022-12-24T09:09:12;9.00;99.90
752;DHT22;360;48.764;9.164;2022-12-24T09:11:38;9.00;99.90
752;DHT22;360;48.764;9.164;2022-12-24T09:14:05;9.00;99.90
752;DHT22;360;48.764;9.164;2022-12-24T09:16:33;9.00;99.90
752;DHT22;360;48.764;9.164;2022-12-24T09:19:00;9.10;99.90
752;DHT22;360;48.764;9.164;2022-12-24T09:21:27;9.20;99.90
752;DHT22;360;48.764;9.164;2022-12-24T09:23:54;9.20;99.90
752;DHT22;360;48.764;9.164;2022-12-24T09:26:22;9.20;99.90
752;DHT22;360;48.764;9.164;2022-12-24T09:28:50;9.30;99.90
752;DHT22;360;48.764;9.164;2022-12-24T09:31:17;9.20;99.90
752;DHT22;360;48.764;9.164;2022-12-24T09:33:47;9.20;99.90
752;DHT22;360;48.764;9.164;2022-12-24T09:36:14;9.20;99.90
752;DHT22;360;48.764;9.164;2022-12-24T09:38:41;9.30;99.90
752;DHT22;360;48.764;9.164;2022-12-24T09:41:13;9.50;99.90
752;DHT22;360;48.764;9.164;2022-12-24T09:43:45;9.60;99.90
752;DHT22;360;48.764;9.164;2022-12-24T09:46:19;9.60;99.90
752;DHT22;360;48.764;9.164;2022-12-24T09:48:51;9.50;99.90
752;DHT22;360;48.764;9.164;2022-12-24T09:51:25;9.50;99.90
752;DHT22;360;48.764;9.164;2022-12-24T09:53:55;9.50;99.90
752;DHT22;360;48.764;9.164;2022-12-24T09:56:26;9.60;99.90
752;DHT22;360;48.764;9.164;2022-12-24T09:58:58;9.70;99.90
752;DHT22;360;48.764;9.164;2022-12-24T10:01:28;9.70;99.90
752;DHT22;360;48.764;9.164;2022-12-24T10:03:58;9.80;99.90
752;DHT22;360;48.764;9.164;2022-12-24T10:06:32;9.80;99.90
752;DHT22;360;48.764;9.164;2022-12-24T10:09:09;9.90;99.90
752;DHT22;360;48.764;9.164;2022-12-24T10:11:42;9.90;99.90
752;DHT22;360;48.764;9.164;2022-12-24T10:14:29;10.00;99.90
752;DHT22;360;48.764;9.164;2022-12-24T10:17:13;10.10;99.90
752;DHT22;360;48.764;9.164;2022-12-24T10:19:51;10.30;1.00
752;DHT22;360;48.764;9.164;2022-12-24T10:22:24;10.40;1.00
752;DHT22;360;48.764;9.164;2022-12-24T10:24:58;10.50;1.00
752;DHT22;360;48.764;9.164;2022-12-24T10:27:31;10.60;1.00
752;DHT22;360;48.764;9.164;2022-12-24T10:30:03;10.60;1.00
752;DHT22;360;48.764;9.164;2022-12-24T10:32:32;10.70;1.00
752;DHT22;360;48.764;9.164;2022-12-24T10:35:07;10.70;1.00
752;DHT22;360;48.764;9.164;2022-12-24T10:37:42;10.70;1.00
752;DHT22;360;48.764;9.164;2022-12-24T10:40:14;10.80;1.00
752;DHT22;360;48.764;9.164;2022-12-24T10:42:42;10.90;1.00
752;DHT22;360;48.764;9.164;2022-12-24T10:45:14;10.90;99.90
752;DHT22;360;48.764;9.164;2022-12-24T10:47:43;11.00;99.90
752;DHT22;360;48.764;9.164;2022-12-24T10:50:17;11.10;99.90
752;DHT22;360;48.764;9.164;2022-12-24T10:52:45;11.20;1.00
752;DHT22;360;48.764;9.164;2022-12-24T10:55:22;11.30;99.90
752;DHT22;360;48.764;9.164;2022-12-24T10:57:59;11.40;99.90
752;DHT22;360;48.764;9.164;2022-12-24T11:00:26;11.40;99.90
752;DHT22;360;48.764;9.164;2022-12-24T11:03:06;11.50;99.90
752;DHT22;360;48.764;9.164;2022-12-24T11:05:36;11.50;99.90
752;DHT22;360;48.764;9.164;2022-12-24T11:08:05;11.50;99.90
752;DHT22;360;48.764;9.164;2022-12-24T11:13:02;11.70;99.90
752;DHT22;360;48.764;9.164;2022-12-24T11:15:31;11.70;99.90
752;DHT22;360;48.764;9.164;2022-12-24T11:18:00;11.70;24.90
752;DHT22;360;48.764;9.164;2022-12-24T11:20:30;11.60;99.90
752;DHT22;360;48.764;9.164;2022-12-24T11:22:59;11.70;99.90
752;DHT22;360;48.764;9.164;2022-12-24T11:25:28;11.70;99.90
752;DHT22;360;48.764;9.164;2022-12-24T11:27:57;11.70;99.90
752;DHT22;360;48.764;9.164;2022-12-24T11:30:36;11.70;99.90
752;DHT22;360;48.764;9.164;2022-12-24T11:33:16;11.70;99.90
752;DHT22;360;48.764;9.164;2022-12-24T11:35:46;11.80;1.00
752;DHT22;360;48.764;9.164;2022-12-24T11:38:19;11.80;1.00
752;DHT22;360;48.764;9.164;2022-12-24T11:40:49;11.90;94.90
752;DHT22;360;48.764;9.164;2022-12-24T11:43:18;12.00;1.00
752;DHT22;360;48.764;9.164;2022-12-24T11:45:48;12.00;1.00
752;DHT22;360;48.764;9.164;2022-12-24T11:48:25;12.10;99.90
752;DHT22;360;48.764;9.164;2022-12-24T11:50:56;12.10;1.00
752;DHT22;360;48.764;9.164;2022-12-24T11:53:30;12.20;1.00
752;DHT22;360;48.764;9.164;2022-12-24T11:56:04;12.20;1.00
752;DHT22;360;48.764;9.164;2022-12-24T11:58:34;12.20;1.00
752;DHT22;360;48.764;9.164;2022-12-24T12:01:11;12.20;1.00
752;DHT22;360;48.764;9.164;2022-12-24T12:03:44;12.20;1.00
752;DHT22;360;48.764;9.164;2022-12-24T12:06:24;12.20;1.00
752;DHT22;360;48.764;9.164;2022-12-24T12:08:55;12.30;99.90
752;DHT22;360;48.764;9.164;2022-12-24T12:11:24;12.40;99.90
752;DHT22;360;48.764;9.164;2022-12-24T12:13:52;12.50;99.90
752;DHT22;360;48.764;9.164;2022-12-24T12:16:22;12.60;99.90
752;DHT22;360;48.764;9.164;2022-12-24T12:18:54;12.60;99.90
752;DHT22;360;48.764;9.164;2022-12-24T12:21:26;12.50;99.90
752;DHT22;360;48.764;9.164;2022-12-24T12:23:59;12.50;99.90
752;DHT22;360;48.764;9.164;2022-12-24T12:26:29;12.50;99.90
752;DHT22;360;48.764;9.164;2022-12-24T12:29:00;12.50;99.90
752;DHT22;360;48.764;9.164;2022-12-24T12:31:33;12.50;99.90
752;DHT22;360;48.764;9.164;2022-12-24T12:34:03;12.50;99.90
752;DHT22;360;48.764;9.164;2022-12-24T12:36:35;12.50;99.90
752;DHT22;360;48.764;9.164;2022-12-24T12:39:05;12.50;99.90
752;DHT22;360;48.764;9.164;2022-12-24T12:41:45;12.50;99.90
752;DHT22;360;48.764;9.164;2022-12-24T12:44:36;12.50;99.90
752;DHT22;360;48.764;9.164;2022-12-24T12:47:35;12.50;99.90
752;DHT22;360;48.764;9.164;2022-12-24T12:50:09;12.60;99.90
752;DHT22;360;48.764;9.164;2022-12-24T12:53:02;12.60;99.90
752;DHT22;360;48.764;9.164;2022-12-24T12:55:38;12.60;99.90
752;DHT22;360;48.764;9.164;2022-12-24T12:58:12;12.60;99.90
752;DHT22;360;48.764;9.164;2022-12-24T13:00:43;12.60;99.90
752;DHT22;360;48.764;9.164;2022-12-24T13:03:43;12.70;57.80
752;DHT22;360;48.764;9.164;2022-12-24T13:06:46;12.70;99.90
752;DHT22;360;48.764;9.164;2022-12-24T13:09:36;12.70;99.90
752;DHT22;360;48.764;9.164;2022-12-24T13:15:06;12.60;90.50
752;DHT22;360;48.764;9.164;2022-12-24T13:17:59;12.50;51.60
752;DHT22;360;48.764;9.164;2022-12-24T13:20:34;12.40;99.90
752;DHT22;360;48.764;9.164;2022-12-24T13:23:11;12.40;1.00
752;DHT22;360;48.764;9.164;2022-12-24T13:25:41;12.40;80.00
752;DHT22;360;48.764;9.164;2022-12-24T13:28:24;12.40;99.90
752;DHT22;360;48.764;9.164;2022-12-24T13:31:22;12.40;99.90
752;DHT22;360;48.764;9.164;2022-12-24T13:33:51;12.40;99.90
752;DHT22;360;48.764;9.164;2022-12-24T13:36:19;12.50;99.90
752;DHT22;360;48.764;9.164;2022-12-24T13:38:47;12.50;1.00
752;DHT22;360;48.764;9.164;2022-12-24T13:41:37;12.50;1.00
752;DHT22;360;48.764;9.164;2022-12-24T13:44:17;12.40;99.90
752;DHT22;360;48.764;9.164;2022-12-24T13:46:50;12.50;99.90
752;DHT22;360;48.764;9.164;2022-12-24T13:49:19;12.50;99.90
752;DHT22;360;48.764;9.164;2022-12-24T13:51:47;12.50;99.90
752;DHT22;360;48.764;9.164;2022-12-24T13:54:18;12.50;1.00
752;DHT22;360;48.764;9.164;2022-12-24T13:56:50;12.40;99.90
752;DHT22;360;48.764;9.164;2022-12-24T13:59:26;12.40;1.00
752;DHT22;360;48.764;9.164;2022-12-24T14:01:58;12.30;1.00
752;DHT22;360;48.764;9.164;2022-12-24T14:04:27;12.30;1.00
752;DHT22;360;48.764;9.164;2022-12-24T14:06:58;12.20;1.00
752;DHT22;360;48.764;9.164;2022-12-24T14:09:27;12.20;99.90
752;DHT22;360;48.764;9.164;2022-12-24T14:12:15;12.10;99.90
752;DHT22;360;48.764;9.164;2022-12-24T14:14:57;12.10;99.90
752;DHT22;360;48.764;9.164;2022-12-24T14:17:26;12.20;1.00
752;DHT22;360;48.764;9.164;2022-12-24T14:19:55;12.20;99.90
752;DHT22;360;48.764;9.164;2022-12-24T14:22:27;12.20;99.90
752;DHT22;360;48.764;9.164;2022-12-24T14:24:58;12.20;99.90
752;DHT22;360;48.764;9.164;2022-12-24T14:27:32;12.20;99.90
752;DHT22;360;48.764;9.164;2022-12-24T14:30:03;12.10;99.90
752;DHT22;360;48.764;9.164;2022-12-24T14:32:34;12.00;1.00
752;DHT22;360;48.764;9.164;2022-12-24T14:35:06;11.90;1.00
752;DHT22;360;48.764;9.164;2022-12-24T14:37:33;11.90;99.90
752;DHT22;360;48.764;9.164;2022-12-24T14:40:00;11.90;99.90
752;DHT22;360;48.764;9.164;2022-12-24T14:42:35;11.70;99.90
752;DHT22;360;48.764;9.164;2022-12-24T14:45:16;11.70;99.90
752;DHT22;360;48.764;9.164;2022-12-24T14:47:49;11.60;99.90
752;DHT22;360;48.764;9.164;2022-12-24T14:50:35;11.50;99.90
752;DHT22;360;48.764;9.164;2022-12-24T14:53:16;11.50;1.00
752;DHT22;360;48.764;9.164;2022-12-24T14:55:46;11.40;1.00
752;DHT22;360;48.764;9.164;2022-12-24T14:58:24;11.30;1.00
752;DHT22;360;48.764;9.164;2022-12-24T15:00:55;11.20;1.00
752;DHT22;360;48.764;9.164;2022-12-24T15:03:23;11.20;43.20
752;DHT22;360;48.764;9.164;2022-12-24T15:05:52;11.40;1.00
752;DHT22;360;48.764;9.164;2022-12-24T15:08:28;11.30;1.00
752;DHT22;360;48.764;9.164;2022-12-24T15:10:59;11.20;1.00
752;DHT22;360;48.764;9.164;2022-12-24T15:13:30;11.10;1.00
752;DHT22;360;48.764;9.164;2022-12-24T15:16:01;11.10;2.70
752;DHT22;360;48.764;9.164;2022-12-24T15:18:31;10.90;27.00
752;DHT22;360;48.764;9.164;2022-12-24T15:21:00;11.00;50.80
752;DHT22;360;48.764;9.164;2022-12-24T15:23:29;10.90;87.20
752;DHT22;360;48.764;9.164;2022-12-24T15:26:19;10.80;99.90
752;DHT22;360;48.764;9.164;2022-12-24T15:28:46;10.80;99.90
752;DHT22;360;48.764;9.164;2022-12-24T15:31:17;10.80;99.90
752;DHT22;360;48.764;9.164;2022-12-24T15:33:45;10.70;99.90
752;DHT22;360;48.764;9.164;2022-12-24T15:36:13;10.70;99.90
752;DHT22;360;48.764;9.164;2022-12-24T15:38:41;10.60;99.90
752;DHT22;360;48.764;9.164;2022-12-24T15:41:16;10.60;99.90
752;DHT22;360;48.764;9.164;2022-12-24T15:43:45;10.60;99.90
752;DHT22;360;48.764;9.164;2022-12-24T15:46:22;10.50;99.90
752;DHT22;360;48.764;9.164;2022-12-24T15:48:52;10.50;99.90
752;DHT22;360;48.764;9.164;2022-12-24T15:51:24;10.40;99.90
752;DHT22;360;48.764;9.164;2022-12-24T15:53:56;10.40;99.90
752;DHT22;360;48.764;9.164;2022-12-24T15:56:31;10.40;99.90
752;DHT22;360;48.764;9.164;2022-12-24T15:59:12;10.40;99.90
752;DHT22;360;48.764;9.164;2022-12-24T16:01:47;10.30;99.90
752;DHT22;360;48.764;9.164;2022-12-24T16:04:16;10.20;99.90
752;DHT22;360;48.764;9.164;2022-12-24T16:06:52;10.20;99.90
752;DHT22;360;48.764;9.164;2022-12-24T16:09:41;10.30;99.90
752;DHT22;360;48.764;9.164;2022-12-24T16:12:14;10.30;99.90
752;DHT22;360;48.764;9.164;2022-12-24T16:14:46;10.20;99.90
752;DHT22;360;48.764;9.164;2022-12-24T16:17:21;10.10;99.90
752;DHT22;360;48.764;9.164;2022-12-24T16:19:50;10.10;99.90
752;DHT22;360;48.764;9.164;2022-12-24T16:22:19;10.10;99.90
752;DHT22;360;48.764;9.164;2022-12-24T16:25:00;10.10;99.90
752;DHT22;360;48.764;9.164;2022-12-24T16:27:28;10.00;99.90
752;DHT22;360;48.764;9.164;2022-12-24T16:29:55;10.10;99.90
752;DHT22;360;48.764;9.164;2022-12-24T16:32:29;10.00;99.90
752;DHT22;360;48.764;9.164;2022-12-24T16:34:57;9.90;99.90
752;DHT22;360;48.764;9.164;2022-12-24T16:37:24;9.90;99.90
752;DHT22;360;48.764;9.164;2022-12-24T16:39:51;9.80;99.90
752;DHT22;360;48.764;9.164;2022-12-24T16:42:18;9.90;99.90
752;DHT22;360;48.764;9.164;2022-12-24T16:45:03;9.90;99.90
752;DHT22;360;48.764;9.164;2022-12-24T16:47:33;9.90;99.90
752;DHT22;360;48.764;9.164;2022-12-24T16:50:01;10.00;99.90
752;DHT22;360;48.764;9.164;2022-12-24T16:52:30;9.90;99.90
752;DHT22;360;48.764;9.164;2022-12-24T16:54:59;10.00;99.90
752;DHT22;360;48.764;9.164;2022-12-24T16:57:27;9.90;99.90
752;DHT22;360;48.764;9.164;2022-12-24T16:59:54;9.90;99.90
752;DHT22;360;48.764;9.164;2022-12-24T17:02:21;9.80;99.90
752;DHT22;360;48.764;9.164;2022-12-24T17:04:50;9.80;99.90
752;DHT22;360;48.764;9.164;2022-12-24T17:07:18;9.90;99.90
752;DHT22;360;48.764;9.164;2022-12-24T17:09:45;9.90;99.90
752;DHT22;360;48.764;9.164;2022-12-24T17:12:13;9.90;99.90
752;DHT22;360;48.764;9.164;2022-12-24T17:14:40;10.00;99.90
752;DHT22;360;48.764;9.164;2022-12-24T17:17:16;10.00;99.90
752;DHT22;360;48.764;9.164;2022-12-24T17:19:44;9.90;99.90